Time;durP1;ratioP1;P1;durP2;ratioP2;P2;SDS_P1;SDS_P2;PMS_P1;PMS_P2;Temp;Humidity;BMP_temperature;BMP_pressure;BME280_temperature;BME280_humidity;BME280_pressure;Samples;Min_cycle;Max_cycle;Signal;HPM_P1;HPM_P2
2022/12/04 00:00:35;;;;;;;21.33;16.13;;;4.10;99.90;;;;;;5060643;28;20303;-77
2022/12/04 00:03:21;;;;;;;23.42;17.85;;;4.10;99.90;;;;;;5061190;28;20702;-76
2022/12/04 00:06:09;;;;;;;24.00;17.42;;;4.10;99.90;;;;;;5063880;28;20236;-76
2022/12/04 00:08:55;;;;;;;22.25;16.30;;;4.10;99.90;;;;;;5059252;28;20563;-77
2022/12/04 00:11:43;;;;;;;22.20;16.23;;;4.00;99.90;;;;;;5061978;28;20230;-76
2022/12/04 00:14:28;;;;;;;22.60;17.20;;;4.00;99.90;;;;;;5061927;28;20196;-77
2022/12/04 00:17:14;;;;;;;22.00;16.05;;;4.00;99.90;;;;;;5057840;28;20330;-77
2022/12/04 00:20:00;;;;;;;19.85;15.30;;;4.00;99.90;;;;;;5065536;28;20204;-76
2022/12/04 00:22:45;;;;;;;21.23;16.40;;;4.00;99.90;;;;;;5068249;28;20216;-77
2022/12/04 00:25:31;;;;;;;20.02;15.15;;;4.00;99.90;;;;;;5059476;28;20224;-76
2022/12/04 00:28:19;;;;;;;19.58;15.10;;;4.10;99.90;;;;;;5064029;28;20289;-76
2022/12/04 00:31:06;;;;;;;21.42;16.83;;;4.10;99.90;;;;;;5068432;28;20681;-77
2022/12/04 00:33:52;;;;;;;21.75;16.30;;;4.10;99.90;;;;;;5069774;28;20200;-77
2022/12/04 00:36:38;;;;;;;20.38;15.32;;;4.20;99.90;;;;;;5069253;28;20298;-76
2022/12/04 00:39:24;;;;;;;21.25;16.08;;;4.00;99.90;;;;;;5067683;28;20699;-76
2022/12/04 00:42:10;;;;;;;23.20;16.15;;;4.00;99.90;;;;;;5068686;28;20255;-77
2022/12/04 00:44:57;;;;;;;22.08;15.23;;;4.00;99.90;;;;;;5067374;28;20305;-77
2022/12/04 00:47:42;;;;;;;21.00;15.43;;;4.10;99.90;;;;;;5065131;28;20213;-77
2022/12/04 00:50:28;;;;;;;22.35;16.92;;;4.10;99.90;;;;;;5067121;28;20196;-77
2022/12/04 00:53:14;;;;;;;22.73;15.50;;;4.10;99.90;;;;;;5071852;28;20208;-77
2022/12/04 00:56:03;;;;;;;24.42;17.60;;;4.10;99.90;;;;;;5062981;28;20232;-77
2022/12/04 00:58:52;;;;;;;23.20;16.17;;;4.10;99.90;;;;;;5070110;28;20196;-76
2022/12/04 01:01:39;;;;;;;23.60;16.55;;;4.10;99.90;;;;;;5066946;28;20673;-76
2022/12/04 01:04:24;;;;;;;26.63;18.30;;;4.00;99.90;;;;;;5066633;28;20254;-77
2022/12/04 01:07:10;;;;;;;18.63;14.65;;;4.00;99.90;;;;;;5064753;28;20294;-76
2022/12/04 01:09:55;;;;;;;20.38;15.30;;;4.10;99.90;;;;;;5067530;28;20224;-77
2022/12/04 01:12:41;;;;;;;19.25;15.88;;;4.10;99.90;;;;;;5070603;28;20282;-76
2022/12/04 01:15:27;;;;;;;21.20;16.30;;;4.10;99.90;;;;;;5058455;28;20228;-77
2022/12/04 01:18:15;;;;;;;20.63;15.35;;;4.20;99.90;;;;;;5071313;28;20623;-76
2022/12/04 01:21:00;;;;;;;21.73;15.57;;;4.10;99.90;;;;;;5066162;28;20208;-77
2022/12/04 01:23:46;;;;;;;22.35;16.13;;;4.00;99.90;;;;;;5065522;28;20233;-77
2022/12/04 01:26:32;;;;;;;20.45;15.30;;;3.90;99.90;;;;;;5073800;28;20721;-77
2022/12/04 01:29:18;;;;;;;18.63;14.55;;;3.90;99.90;;;;;;5069076;28;20220;-76
2022/12/04 01:32:04;;;;;;;20.00;15.93;;;3.90;99.90;;;;;;5070142;28;20220;-77
2022/12/04 01:34:51;;;;;;;19.23;14.40;;;4.00;99.90;;;;;;5073192;28;20283;-76
2022/12/04 01:37:36;;;;;;;20.42;15.10;;;4.00;99.90;;;;;;5070530;28;20212;-77
2022/12/04 01:40:22;;;;;;;19.67;16.13;;;4.00;99.90;;;;;;5069202;28;20204;-76
2022/12/04 01:43:12;;;;;;;18.88;14.73;;;4.00;99.90;;;;;;5069113;28;20272;-76
2022/12/04 01:45:59;;;;;;;19.45;14.30;;;3.90;99.90;;;;;;5064579;28;20220;-77
2022/12/04 01:48:46;;;;;;;21.65;16.10;;;3.90;99.90;;;;;;5067360;28;20351;-76
2022/12/04 01:51:37;;;;;;;21.23;16.40;;;3.90;99.90;;;;;;5070281;28;20204;-76
2022/12/04 01:54:27;;;;;;;17.52;14.10;;;3.90;99.90;;;;;;5066889;28;20208;-77
2022/12/04 01:57:14;;;;;;;23.15;15.50;;;3.90;99.90;;;;;;5072250;28;20600;-77
2022/12/04 02:00:04;;;;;;;21.13;15.40;;;3.90;99.90;;;;;;5068111;28;20232;-77
2022/12/04 02:02:50;;;;;;;22.25;16.95;;;3.90;99.90;;;;;;5070451;28;20584;-77
2022/12/04 02:05:35;;;;;;;22.00;16.33;;;3.90;99.90;;;;;;5072333;28;20278;-77
2022/12/04 02:08:23;;;;;;;24.05;16.35;;;3.90;99.90;;;;;;5058957;28;20203;-77
2022/12/04 02:11:19;;;;;;;20.55;15.00;;;3.90;99.90;;;;;;5072036;28;20201;-77
2022/12/04 02:14:15;;;;;;;21.63;16.52;;;3.90;99.90;;;;;;5072085;28;20195;-77
2022/12/04 02:17:08;;;;;;;25.10;17.33;;;3.80;99.90;;;;;;5060814;28;20224;-76
2022/12/04 02:20:28;;;;;;;22.35;16.15;;;3.90;99.90;;;;;;5064152;28;20209;-76
2022/12/04 02:23:25;;;;;;;20.52;15.75;;;3.90;99.90;;;;;;5048270;28;20681;-77
2022/12/04 02:26:29;;;;;;;22.58;16.23;;;3.90;99.90;;;;;;5067863;28;20236;-77
2022/12/04 02:29:23;;;;;;;23.42;16.40;;;3.90;99.90;;;;;;5066881;28;20200;-77
2022/12/04 02:32:17;;;;;;;20.63;16.05;;;3.90;99.90;;;;;;5064837;28;20196;-77
2022/12/04 02:35:08;;;;;;;23.90;16.50;;;3.90;99.90;;;;;;5070349;28;20197;-77
2022/12/04 02:37:59;;;;;;;20.67;15.73;;;4.00;99.90;;;;;;5068345;28;20837;-76
2022/12/04 02:40:50;;;;;;;21.10;16.20;;;4.10;99.90;;;;;;5070950;28;20224;-76
2022/12/04 02:43:41;;;;;;;22.55;15.60;;;4.10;99.90;;;;;;5071436;28;20212;-77
2022/12/04 02:46:32;;;;;;;22.30;16.35;;;4.10;99.90;;;;;;5066817;28;20271;-77
2022/12/04 02:49:22;;;;;;;22.17;15.38;;;4.10;99.90;;;;;;5056235;28;20258;-77
2022/12/04 02:52:11;;;;;;;20.45;15.00;;;4.20;99.90;;;;;;5063117;28;20571;-76
2022/12/04 02:55:02;;;;;;;22.83;15.52;;;4.20;99.90;;;;;;5067161;28;20746;-77
2022/12/04 02:57:53;;;;;;;23.25;15.10;;;4.20;99.90;;;;;;5062550;28;20196;-77
2022/12/04 03:00:42;;;;;;;22.38;15.38;;;4.20;99.90;;;;;;5062011;28;20197;-77
2022/12/04 03:03:31;;;;;;;22.33;15.48;;;4.20;99.90;;;;;;5064305;28;20246;-77
2022/12/04 03:06:20;;;;;;;23.45;16.67;;;4.20;99.90;;;;;;5065690;28;20903;-77
2022/12/04 03:09:12;;;;;;;19.27;13.98;;;4.20;99.90;;;;;;5057447;28;20216;-77
2022/12/04 03:12:01;;;;;;;21.20;15.15;;;4.30;99.90;;;;;;5065263;28;20217;-77
2022/12/04 03:14:52;;;;;;;22.17;15.38;;;4.30;99.90;;;;;;5063330;28;20693;-77
2022/12/04 03:17:45;;;;;;;19.38;14.18;;;4.40;99.90;;;;;;5061479;28;20314;-77
2022/12/04 03:20:35;;;;;;;27.08;15.90;;;4.30;99.90;;;;;;5064491;28;20255;-77
2022/12/04 03:23:29;;;;;;;21.42;15.07;;;4.30;99.90;;;;;;5067628;28;20204;-77
2022/12/04 03:26:23;;;;;;;22.13;14.75;;;4.30;99.90;;;;;;5058884;28;20240;-77
2022/12/04 03:29:13;;;;;;;18.73;12.90;;;4.20;99.90;;;;;;5061761;28;20211;-77
2022/12/04 03:32:06;;;;;;;20.02;13.85;;;4.20;99.90;;;;;;5071209;28;20220;-76
2022/12/04 03:34:57;;;;;;;18.52;13.15;;;4.20;99.90;;;;;;5068530;28;20203;-77
2022/12/04 03:37:50;;;;;;;19.33;13.77;;;4.30;99.90;;;;;;5063529;28;20228;-77
2022/12/04 03:40:39;;;;;;;26.38;15.27;;;4.30;99.90;;;;;;5064854;28;20692;-77
2022/12/04 03:43:29;;;;;;;19.58;13.77;;;4.40;99.90;;;;;;5062685;28;20665;-77
2022/12/04 03:46:24;;;;;;;19.42;12.82;;;4.40;99.90;;;;;;5059723;28;20343;-77
2022/12/04 03:49:17;;;;;;;20.48;13.32;;;4.40;99.90;;;;;;5059232;28;20197;-76
2022/12/04 03:52:08;;;;;;;19.42;11.73;;;4.30;99.90;;;;;;5062909;28;20690;-77
2022/12/04 03:55:00;;;;;;;14.25;10.88;;;4.30;99.90;;;;;;5063906;28;20201;-77
2022/12/04 03:57:47;;;;;;;17.52;12.20;;;4.20;99.90;;;;;;5061924;28;20224;-76
2022/12/04 04:00:38;;;;;;;17.17;11.80;;;4.20;99.90;;;;;;5063206;28;20208;-76
2022/12/04 04:03:27;;;;;;;16.35;11.32;;;4.20;99.90;;;;;;5062832;28;20204;-77
2022/12/04 04:06:18;;;;;;;19.52;12.48;;;4.20;99.90;;;;;;5062976;28;20228;-76
2022/12/04 04:09:09;;;;;;;14.85;11.13;;;4.20;99.90;;;;;;5062724;28;20200;-77
2022/12/04 04:12:02;;;;;;;17.10;12.70;;;4.20;99.90;;;;;;5061495;28;20207;-76
2022/12/04 04:24:15;;;;;;;15.65;11.15;;;4.30;99.90;;;;;;5057755;28;20680;-76
2022/12/04 04:27:03;;;;;;;16.50;11.38;;;4.30;99.90;;;;;;5059550;28;20236;-76
2022/12/04 04:29:49;;;;;;;15.52;11.43;;;4.30;99.90;;;;;;5064270;28;20255;-77
2022/12/04 04:32:39;;;;;;;14.32;10.50;;;4.20;99.90;;;;;;5061874;28;20672;-77
2022/12/04 04:35:33;;;;;;;15.60;10.93;;;4.30;99.90;;;;;;5062649;28;20310;-77
2022/12/04 04:38:24;;;;;;;16.88;11.48;;;4.20;99.90;;;;;;5053946;28;20205;-77
2022/12/04 04:41:13;;;;;;;18.30;12.00;;;4.20;99.90;;;;;;5064305;28;20200;-77
2022/12/04 04:44:10;;;;;;;12.60;10.05;;;4.30;99.90;;;;;;5066155;28;20199;-75
2022/12/04 04:47:01;;;;;;;14.48;10.05;;;4.40;99.90;;;;;;5061332;28;20263;-77
2022/12/04 04:49:49;;;;;;;17.00;10.88;;;4.40;99.90;;;;;;5068964;28;20683;-77
2022/12/04 04:52:37;;;;;;;16.17;11.68;;;4.40;99.90;;;;;;5070479;28;20204;-76
2022/12/04 04:55:23;;;;;;;20.20;11.57;;;4.40;99.90;;;;;;5068135;28;20243;-77
2022/12/04 04:58:11;;;;;;;16.42;10.32;;;4.30;99.90;;;;;;5059510;28;20330;-77
2022/12/04 05:01:00;;;;;;;14.68;10.90;;;4.30;99.90;;;;;;5069826;28;20702;-76
2022/12/04 05:03:46;;;;;;;15.95;12.10;;;4.30;99.90;;;;;;5062495;28;20337;-77
2022/12/04 05:06:32;;;;;;;22.13;12.05;;;4.40;99.90;;;;;;5066576;28;20590;-77
2022/12/04 05:09:17;;;;;;;18.40;12.68;;;4.40;99.90;;;;;;5070284;28;20681;-77
2022/12/04 05:12:03;;;;;;;18.30;12.50;;;4.50;99.90;;;;;;5069845;28;20685;-76
2022/12/04 05:14:49;;;;;;;15.13;11.02;;;4.50;99.90;;;;;;5069362;28;20224;-77
2022/12/04 05:17:36;;;;;;;14.43;10.82;;;4.50;99.90;;;;;;5062664;28;20771;-76
2022/12/04 05:20:22;;;;;;;13.20;10.20;;;4.50;99.90;;;;;;5066589;28;20450;-77
2022/12/04 05:23:07;;;;;;;13.43;10.55;;;4.40;99.90;;;;;;5066855;28;20319;-76
2022/12/04 05:25:59;;;;;;;18.83;10.75;;;4.30;99.90;;;;;;5065885;28;20248;-77
2022/12/04 05:28:45;;;;;;;14.30;10.25;;;4.30;99.90;;;;;;5069605;28;20705;-77
2022/12/04 05:31:30;;;;;;;14.48;9.98;;;4.30;99.90;;;;;;5063198;28;20200;-77
2022/12/04 05:34:17;;;;;;;12.77;9.40;;;4.30;99.90;;;;;;5067092;28;20200;-77
2022/12/04 05:37:03;;;;;;;12.68;10.20;;;4.40;99.90;;;;;;5063544;28;20330;-77
2022/12/04 05:39:48;;;;;;;12.48;9.50;;;4.40;99.90;;;;;;5067224;28;20208;-77
2022/12/04 05:42:34;;;;;;;14.43;10.15;;;4.40;99.90;;;;;;5067927;28;20267;-77
2022/12/04 05:45:19;;;;;;;19.25;11.27;;;4.40;99.90;;;;;;5062412;28;20251;-77
2022/12/04 05:48:05;;;;;;;14.73;10.60;;;4.40;99.90;;;;;;5067370;28;20200;-76
2022/12/04 05:50:52;;;;;;;13.73;9.27;;;4.40;99.90;;;;;;5065261;28;20290;-76
2022/12/04 05:53:38;;;;;;;14.90;10.25;;;4.50;99.90;;;;;;5065222;28;20200;-77
2022/12/04 05:56:23;;;;;;;14.98;9.70;;;4.50;99.90;;;;;;5057964;28;20327;-77
2022/12/04 05:59:09;;;;;;;13.95;9.95;;;4.50;99.90;;;;;;5062788;28;20219;-75
2022/12/04 06:01:55;;;;;;;15.40;9.65;;;4.60;99.90;;;;;;5069741;28;20208;-77
2022/12/04 06:04:40;;;;;;;13.18;8.90;;;4.60;99.90;;;;;;5065068;28;20377;-77
2022/12/04 06:07:27;;;;;;;11.77;9.63;;;4.60;99.90;;;;;;5062943;28;20228;-77
2022/12/04 06:10:13;;;;;;;12.25;10.00;;;4.50;99.90;;;;;;5070124;28;20338;-76
2022/12/04 06:12:58;;;;;;;17.33;10.38;;;4.50;99.90;;;;;;5069965;28;20741;-79
2022/12/04 06:15:44;;;;;;;15.68;10.80;;;4.50;99.90;;;;;;5067402;28;20224;-76
2022/12/04 06:18:30;;;;;;;13.85;9.77;;;4.50;99.90;;;;;;5071879;28;20237;-78
2022/12/04 06:21:15;;;;;;;16.75;10.98;;;4.60;99.90;;;;;;5067777;28;20697;-78
2022/12/04 06:24:03;;;;;;;15.07;11.18;;;4.60;99.90;;;;;;5069626;28;20207;-77
2022/12/04 06:26:48;;;;;;;14.98;10.70;;;4.60;99.90;;;;;;5066194;28;20248;-78
2022/12/04 06:29:34;;;;;;;14.60;10.00;;;4.60;99.90;;;;;;5070439;28;20224;-78
2022/12/04 06:32:19;;;;;;;13.27;9.32;;;4.50;99.90;;;;;;5069165;28;20242;-79
2022/12/04 06:35:06;;;;;;;11.68;8.98;;;4.50;99.90;;;;;;5075281;28;20282;-77
2022/12/04 06:37:52;;;;;;;15.52;10.38;;;4.50;99.90;;;;;;5071854;28;20557;-77
2022/12/04 06:40:41;;;;;;;13.05;9.77;;;4.60;99.90;;;;;;5069299;28;20200;-78
2022/12/04 06:43:26;;;;;;;15.63;10.10;;;4.60;99.90;;;;;;5069989;28;20200;-78
2022/12/04 06:46:14;;;;;;;14.18;9.73;;;4.70;99.90;;;;;;5065518;28;20227;-77
2022/12/04 06:49:01;;;;;;;17.60;10.90;;;4.60;99.90;;;;;;5066979;28;20286;-77
2022/12/04 06:51:46;;;;;;;15.40;10.65;;;4.60;99.90;;;;;;5075519;28;20272;-78
2022/12/04 06:54:32;;;;;;;19.52;9.98;;;4.70;99.90;;;;;;5070447;28;20224;-78
2022/12/04 06:57:19;;;;;;;14.85;10.20;;;4.70;99.90;;;;;;5058554;28;20244;-77
2022/12/04 07:00:06;;;;;;;11.05;8.43;;;4.60;99.90;;;;;;5069478;28;20345;-77
2022/12/04 07:02:51;;;;;;;16.00;9.80;;;4.60;99.90;;;;;;5068315;28;20483;-77
2022/12/04 07:05:37;;;;;;;13.18;9.73;;;4.50;99.90;;;;;;5065070;28;20240;-78
2022/12/04 07:08:22;;;;;;;16.17;10.13;;;4.50;99.90;;;;;;5071074;28;20211;-77
2022/12/04 07:11:09;;;;;;;14.55;9.73;;;4.60;99.90;;;;;;5065958;28;20213;-78
2022/12/04 07:13:55;;;;;;;14.65;9.52;;;4.50;99.90;;;;;;5068209;28;20221;-77
2022/12/04 07:16:42;;;;;;;14.20;9.95;;;4.50;99.90;;;;;;5063479;28;20224;-79
2022/12/04 07:19:27;;;;;;;14.95;10.27;;;4.50;99.90;;;;;;5068705;28;20204;-78
2022/12/04 07:22:13;;;;;;;14.07;9.80;;;4.50;99.90;;;;;;5071397;28;20334;-78
2022/12/04 07:24:59;;;;;;;15.80;10.52;;;4.50;99.90;;;;;;5064718;28;20990;-77
2022/12/04 07:27:44;;;;;;;15.48;10.43;;;4.50;99.90;;;;;;5066578;28;20287;-76
2022/12/04 07:30:31;;;;;;;14.68;11.05;;;4.50;99.90;;;;;;5067006;28;20242;-77
2022/12/04 07:33:17;;;;;;;15.68;11.77;;;4.50;99.90;;;;;;5067482;28;20681;-78
2022/12/04 07:36:05;;;;;;;13.80;9.70;;;4.60;99.90;;;;;;5063736;28;20260;-77
2022/12/04 07:38:51;;;;;;;14.38;9.65;;;4.50;99.90;;;;;;5067980;28;20203;-78
2022/12/04 07:41:37;;;;;;;14.80;9.57;;;4.60;99.90;;;;;;5069161;28;20211;-77
2022/12/04 07:44:22;;;;;;;16.25;11.45;;;4.60;99.90;;;;;;5062868;28;20208;-77
2022/12/04 07:47:09;;;;;;;16.73;10.32;;;4.70;99.90;;;;;;5063210;28;20220;-77
2022/12/04 07:49:55;;;;;;;13.68;10.13;;;4.70;99.90;;;;;;5068643;28;20220;-78
2022/12/04 07:52:40;;;;;;;13.10;9.48;;;4.60;99.90;;;;;;5067447;28;20266;-78
2022/12/04 07:55:26;;;;;;;15.50;10.95;;;4.70;99.90;;;;;;5059295;28;20220;-77
2022/12/04 07:58:11;;;;;;;13.70;9.68;;;4.70;99.90;;;;;;5065506;28;20228;-78
2022/12/04 08:01:06;;;;;;;17.42;11.07;;;4.70;99.90;;;;;;5070728;28;20239;-78
2022/12/04 08:03:55;;;;;;;15.57;9.55;;;4.80;99.90;;;;;;5063288;28;20569;-77
2022/12/04 08:06:40;;;;;;;15.95;10.15;;;4.70;99.90;;;;;;5064637;28;20776;-77
2022/12/04 08:09:26;;;;;;;13.02;9.63;;;4.60;99.90;;;;;;5065182;28;20305;-79
2022/12/04 08:12:12;;;;;;;18.95;12.13;;;4.70;99.90;;;;;;5068165;28;20200;-76
2022/12/04 08:14:57;;;;;;;16.77;10.18;;;4.80;99.90;;;;;;5070780;28;20211;-78
2022/12/04 08:17:43;;;;;;;13.30;10.13;;;4.90;99.90;;;;;;5069822;28;20303;-77
2022/12/04 08:20:30;;;;;;;13.48;10.05;;;4.90;99.90;;;;;;5070525;28;20208;-77
2022/12/04 08:23:16;;;;;;;18.65;10.50;;;4.90;99.90;;;;;;5074276;28;20569;-79
2022/12/04 08:26:02;;;;;;;17.92;10.27;;;4.90;99.90;;;;;;5066958;28;20231;-77
2022/12/04 08:28:48;;;;;;;14.45;9.50;;;4.90;99.90;;;;;;5066631;28;20200;-78
2022/12/04 08:31:35;;;;;;;13.93;9.60;;;5.00;99.90;;;;;;5070178;28;20223;-78
2022/12/04 08:34:21;;;;;;;18.20;13.48;;;5.00;99.90;;;;;;5067682;28;20219;-78
2022/12/04 08:37:08;;;;;;;13.27;9.48;;;5.00;99.90;;;;;;5064182;28;20232;-76
2022/12/04 08:39:53;;;;;;;16.35;11.55;;;5.00;99.90;;;;;;5073315;28;20258;-77
2022/12/04 08:42:39;;;;;;;14.52;10.65;;;5.00;99.90;;;;;;5073188;28;20728;-77
2022/12/04 08:45:25;;;;;;;14.50;9.75;;;4.90;99.90;;;;;;5069703;28;20271;-75
2022/12/04 08:48:11;;;;;;;14.48;9.75;;;4.90;99.90;;;;;;5075238;28;20219;-78
2022/12/04 08:50:56;;;;;;;15.25;10.27;;;5.00;99.90;;;;;;5069277;28;20681;-77
2022/12/04 08:53:43;;;;;;;13.48;9.40;;;5.00;99.90;;;;;;5073075;28;20685;-77
2022/12/04 08:56:30;;;;;;;15.63;10.77;;;5.00;99.90;;;;;;5067093;28;20224;-76
2022/12/04 08:59:16;;;;;;;13.20;9.77;;;5.00;99.90;;;;;;5070177;28;20255;-77
2022/12/04 09:02:01;;;;;;;12.80;10.18;;;5.00;99.90;;;;;;5072044;28;20208;-78
2022/12/04 09:04:47;;;;;;;13.60;8.85;;;5.10;99.90;;;;;;5073461;28;20246;-77
2022/12/04 09:07:32;;;;;;;15.07;10.70;;;5.10;99.90;;;;;;5067785;28;20338;-78
2022/12/04 09:10:19;;;;;;;11.88;9.05;;;5.10;99.90;;;;;;5071002;28;20266;-77
2022/12/04 09:13:05;;;;;;;12.45;9.25;;;5.10;99.90;;;;;;5068323;28;20200;-77
2022/12/04 09:15:50;;;;;;;11.88;8.77;;;5.10;99.90;;;;;;5067282;28;20232;-77
2022/12/04 09:18:37;;;;;;;14.10;9.50;;;5.10;99.90;;;;;;5068169;28;20237;-77
2022/12/04 09:21:24;;;;;;;14.07;10.38;;;5.20;99.90;;;;;;5069173;28;20204;-78
2022/12/04 09:24:10;;;;;;;14.30;10.05;;;5.20;99.90;;;;;;5067760;28;20281;-76
2022/12/04 09:26:57;;;;;;;15.65;11.00;;;5.20;99.90;;;;;;5066263;28;20232;-78
2022/12/04 09:29:42;;;;;;;15.18;10.20;;;5.30;99.90;;;;;;5071186;28;20208;-77
2022/12/04 09:32:28;;;;;;;12.45;9.95;;;5.20;99.90;;;;;;5068661;28;20335;-78
2022/12/04 09:35:13;;;;;;;12.43;8.98;;;5.20;99.90;;;;;;5068181;28;20679;-77
2022/12/04 09:37:59;;;;;;;16.30;9.00;;;5.20;99.90;;;;;;5070287;28;20220;-77
2022/12/04 09:40:51;;;;;;;15.18;10.88;;;5.30;99.90;;;;;;5070208;28;20237;-76
2022/12/04 09:43:44;;;;;;;13.70;9.50;;;5.30;99.90;;;;;;5069520;28;20209;-76
2022/12/04 09:46:35;;;;;;;13.25;10.20;;;5.20;99.90;;;;;;5059375;28;20217;-78
2022/12/04 09:49:25;;;;;;;14.65;9.52;;;5.30;99.90;;;;;;5067900;28;20208;-77
2022/12/04 09:52:22;;;;;;;15.48;9.43;;;5.40;99.90;;;;;;5072904;28;20203;-78
2022/12/04 09:55:15;;;;;;;12.82;9.18;;;5.30;99.90;;;;;;5070633;28;20755;-78
2022/12/04 09:58:04;;;;;;;13.00;10.30;;;5.40;99.90;;;;;;5072069;28;20346;-77
2022/12/04 10:00:52;;;;;;;12.25;8.25;;;5.40;99.90;;;;;;5072230;28;20279;-77
2022/12/04 10:03:37;;;;;;;11.88;9.05;;;5.50;99.90;;;;;;5066284;28;20223;-78
2022/12/04 10:06:26;;;;;;;14.02;9.23;;;5.50;99.90;;;;;;5068231;28;20242;-78
2022/12/04 10:09:18;;;;;;;12.65;9.75;;;5.60;99.90;;;;;;5072109;28;20211;-77
2022/12/04 10:12:15;;;;;;;16.92;9.55;;;5.60;99.90;;;;;;5071612;28;20216;-76
2022/12/04 10:15:12;;;;;;;15.02;9.93;;;5.60;99.90;;;;;;5066622;28;20581;-76
2022/12/04 10:18:22;;;;;;;14.35;9.95;;;5.60;99.90;;;;;;5075058;28;20220;-77
2022/12/04 10:21:30;;;;;;;13.18;10.10;;;5.60;99.90;;;;;;5074033;28;20704;-78
2022/12/04 10:24:35;;;;;;;13.23;9.27;;;5.70;99.90;;;;;;5066715;28;20208;-78
2022/12/04 10:27:24;;;;;;;12.80;9.02;;;5.70;99.90;;;;;;5070916;28;20314;-78
2022/12/04 10:30:18;;;;;;;12.90;8.88;;;5.70;99.90;;;;;;5064077;28;20785;-77
2022/12/04 10:33:16;;;;;;;14.15;9.00;;;5.70;99.90;;;;;;5066793;28;20292;-77
2022/12/04 10:36:02;;;;;;;15.50;9.82;;;5.70;99.90;;;;;;5058986;28;20697;-77
2022/12/04 10:38:52;;;;;;;16.50;10.73;;;5.70;99.90;;;;;;5068991;28;20219;-77
2022/12/04 10:41:45;;;;;;;19.05;12.43;;;5.60;99.90;;;;;;5070565;28;20272;-78
2022/12/04 10:44:30;;;;;;;16.42;10.88;;;5.70;99.90;;;;;;5067190;28;20200;-77
2022/12/04 10:47:16;;;;;;;13.60;9.80;;;5.70;99.90;;;;;;5069690;28;20219;-77
2022/12/04 10:50:13;;;;;;;22.08;11.80;;;5.70;99.90;;;;;;5071023;28;20204;-79
2022/12/04 10:52:58;;;;;;;15.05;9.95;;;5.70;99.90;;;;;;5072225;28;20622;-77
2022/12/04 10:55:44;;;;;;;15.15;9.90;;;5.80;99.90;;;;;;5064890;28;20309;-78
2022/12/04 10:58:29;;;;;;;16.85;10.25;;;5.70;99.90;;;;;;5075907;28;20350;-77
2022/12/04 11:01:15;;;;;;;14.50;10.02;;;5.80;99.90;;;;;;5071518;28;20220;-78
2022/12/04 11:04:03;;;;;;;13.90;10.70;;;5.80;99.90;;;;;;5070185;28;20232;-78
2022/12/04 11:06:51;;;;;;;16.77;10.20;;;5.90;99.90;;;;;;5069639;28;20232;-78
2022/12/04 11:09:37;;;;;;;14.43;10.30;;;5.80;99.90;;;;;;5068406;28;20232;-78
2022/12/04 11:12:23;;;;;;;14.38;10.45;;;5.70;99.90;;;;;;5071760;28;20571;-78
2022/12/04 11:15:15;;;;;;;13.48;9.70;;;5.70;99.90;;;;;;5062593;28;20199;-78
2022/12/04 11:18:08;;;;;;;15.30;10.48;;;5.60;99.90;;;;;;5071693;28;20278;-78
2022/12/04 11:20:57;;;;;;;17.38;9.85;;;5.60;99.90;;;;;;5065803;28;20215;-78
2022/12/04 11:23:47;;;;;;;13.63;9.65;;;5.70;99.90;;;;;;5069529;28;20258;-78
2022/12/04 11:26:36;;;;;;;13.48;8.57;;;5.70;99.90;;;;;;5069890;28;20716;-78
2022/12/04 11:29:29;;;;;;;14.18;9.68;;;5.70;99.90;;;;;;5058418;28;20223;-77
2022/12/04 11:32:22;;;;;;;11.85;8.55;;;5.70;99.90;;;;;;5070921;28;20200;-78
2022/12/04 11:35:16;;;;;;;16.90;9.90;;;5.70;99.90;;;;;;5062915;28;20208;-78
2022/12/04 11:38:07;;;;;;;14.05;10.57;;;5.70;99.90;;;;;;5069432;28;20251;-77
2022/12/04 11:40:56;;;;;;;13.90;9.40;;;5.70;99.90;;;;;;5070036;28;20581;-77
2022/12/04 11:43:49;;;;;;;16.85;11.30;;;5.80;99.90;;;;;;5065070;28;20208;-77
2022/12/04 11:46:36;;;;;;;16.80;10.75;;;5.80;99.90;;;;;;5068852;28;20221;-77
2022/12/04 11:49:23;;;;;;;15.38;9.32;;;5.80;99.90;;;;;;5069997;28;20262;-77
2022/12/04 11:52:20;;;;;;;16.00;10.50;;;5.80;99.90;;;;;;5068006;28;20200;-79
2022/12/04 11:55:13;;;;;;;17.33;10.32;;;5.80;99.90;;;;;;5067940;28;20199;-77
2022/12/04 11:58:21;;;;;;;19.65;11.25;;;5.70;99.90;;;;;;5067343;28;20362;-77
2022/12/04 12:01:26;;;;;;;13.85;8.68;;;5.70;99.90;;;;;;5066514;28;20205;-78
2022/12/04 12:04:32;;;;;;;13.32;9.60;;;5.70;99.90;;;;;;5062268;28;20197;-76
2022/12/04 12:07:33;;;;;;;13.60;8.73;;;5.80;99.90;;;;;;5081442;22;20252;-73
2022/12/04 12:10:25;;;;;;;15.02;10.60;;;5.80;99.90;;;;;;5062583;28;20204;-73
2022/12/04 12:13:20;;;;;;;14.35;9.63;;;5.80;99.90;;;;;;5059823;28;20212;-73
2022/12/04 12:16:12;;;;;;;14.85;10.23;;;5.90;99.90;;;;;;5066500;28;20721;-73
2022/12/04 12:19:29;;;;;;;15.68;9.48;;;5.80;99.90;;;;;;5066934;28;20333;-73
2022/12/04 12:22:27;;;;;;;16.00;10.07;;;5.80;99.90;;;;;;5066480;28;20523;-73
2022/12/04 12:25:19;;;;;;;15.00;10.00;;;5.70;99.90;;;;;;5063561;28;20208;-73
2022/12/04 12:28:16;;;;;;;14.02;10.43;;;5.70;99.90;;;;;;5071212;28;20204;-73
2022/12/04 12:31:18;;;;;;;17.20;11.02;;;5.70;99.90;;;;;;5069505;28;20495;-73
2022/12/04 12:34:08;;;;;;;17.10;11.85;;;5.80;99.90;;;;;;5064689;28;20207;-74
2022/12/04 12:36:56;;;;;;;13.20;10.45;;;5.80;99.90;;;;;;5068643;28;20317;-74
2022/12/04 12:39:50;;;;;;;17.10;11.95;;;5.80;99.90;;;;;;5071323;28;20228;-73
2022/12/04 12:42:42;;;;;;;17.38;10.77;;;5.80;99.90;;;;;;5071813;28;20204;-73
2022/12/04 12:45:35;;;;;;;16.85;11.18;;;5.80;99.90;;;;;;5067829;28;20213;-73
2022/12/04 12:48:28;;;;;;;18.25;11.80;;;5.80;99.90;;;;;;5069105;28;20196;-73
2022/12/04 12:51:27;;;;;;;20.38;11.43;;;5.80;99.90;;;;;;5068020;28;20575;-73
2022/12/04 12:54:21;;;;;;;21.80;11.15;;;5.80;99.90;;;;;;5065414;28;20294;-73
2022/12/04 12:57:13;;;;;;;16.38;10.75;;;5.80;99.90;;;;;;5066424;28;20581;-73
2022/12/04 13:00:04;;;;;;;15.32;11.40;;;5.80;99.90;;;;;;5064934;28;20302;-73
2022/12/04 13:02:57;;;;;;;17.05;9.95;;;5.80;99.90;;;;;;5069475;28;20278;-74
2022/12/04 13:05:46;;;;;;;16.45;10.40;;;5.80;99.90;;;;;;5066700;28;20211;-74
2022/12/04 13:08:37;;;;;;;17.98;10.48;;;5.80;99.90;;;;;;5064750;28;20744;-74
2022/12/04 13:11:25;;;;;;;17.13;10.52;;;5.80;99.90;;;;;;5064256;28;20196;-74
2022/12/04 13:14:13;;;;;;;13.93;9.55;;;5.70;99.90;;;;;;5064595;28;20275;-74
2022/12/04 13:17:02;;;;;;;15.35;9.85;;;5.70;99.90;;;;;;5067441;28;20220;-74
2022/12/04 13:19:53;;;;;;;14.60;10.55;;;5.70;99.90;;;;;;5067761;28;20286;-74
2022/12/04 13:22:51;;;;;;;14.18;9.75;;;5.80;99.90;;;;;;5068968;28;20216;-74
2022/12/04 13:25:48;;;;;;;16.98;10.98;;;5.80;99.90;;;;;;5066483;28;20287;-74
2022/12/04 13:28:47;;;;;;;15.45;10.27;;;5.80;99.90;;;;;;5062763;28;20184;-74
2022/12/04 13:31:42;;;;;;;22.00;11.10;;;5.80;99.90;;;;;;5067425;28;20204;-74
2022/12/04 13:34:45;;;;;;;29.52;13.23;;;5.80;99.90;;;;;;5072666;28;20204;-74
2022/12/04 13:37:45;;;;;;;16.30;10.90;;;5.80;99.90;;;;;;5062637;28;20227;-74
2022/12/04 13:40:40;;;;;;;18.02;11.93;;;5.80;99.90;;;;;;5062029;28;20201;-74
2022/12/04 13:43:30;;;;;;;14.63;10.32;;;5.80;99.90;;;;;;5066700;28;20334;-74
2022/12/04 13:46:29;;;;;;;16.88;11.35;;;5.80;99.90;;;;;;5059896;28;20217;-74
2022/12/04 13:49:26;;;;;;;16.05;10.70;;;5.80;99.90;;;;;;5062891;28;20197;-75
2022/12/04 13:52:22;;;;;;;17.10;11.57;;;5.80;99.90;;;;;;5064230;28;20200;-74
2022/12/04 13:58:05;;;;;;;16.33;10.48;;;5.80;99.90;;;;;;5087700;27;20592;-74
2022/12/04 14:01:01;;;;;;;26.88;12.13;;;5.70;99.90;;;;;;5080233;28;20290;-74
2022/12/04 14:03:49;;;;;;;20.25;11.50;;;5.80;99.90;;;;;;5085733;28;20203;-74
2022/12/04 14:06:38;;;;;;;17.33;11.13;;;5.80;99.90;;;;;;5094004;28;20317;-74
2022/12/04 14:09:28;;;;;;;21.88;13.25;;;5.80;99.90;;;;;;5086850;28;20403;-74
2022/12/04 14:12:15;;;;;;;17.50;11.75;;;5.80;99.90;;;;;;5085070;22;20228;-77
2022/12/04 14:15:05;;;;;;;23.88;13.57;;;5.90;99.90;;;;;;5076310;28;20223;-76
2022/12/04 14:17:59;;;;;;;20.33;13.13;;;5.70;99.90;;;;;;5077524;28;20222;-76
2022/12/04 14:20:45;;;;;;;22.25;14.15;;;5.70;99.90;;;;;;5061044;28;20670;-76
2022/12/04 14:23:36;;;;;;;21.70;13.27;;;5.70;99.90;;;;;;5083432;28;20196;-75
2022/12/04 14:26:27;;;;;;;18.90;12.55;;;5.70;99.90;;;;;;5074014;28;20200;-76
2022/12/04 14:29:32;;;;;;;20.98;13.10;;;5.60;99.90;;;;;;5064289;28;20664;-76
2022/12/04 14:32:24;;;;;;;29.98;16.05;;;5.60;99.90;;;;;;5067292;28;20708;-76
2022/12/04 14:35:14;;;;;;;26.65;15.48;;;5.60;99.90;;;;;;5068466;28;20224;-75
2022/12/04 14:38:03;;;;;;;27.35;16.38;;;5.60;99.90;;;;;;5062122;28;20251;-77
2022/12/04 14:40:54;;;;;;;27.40;16.50;;;5.50;99.90;;;;;;5058622;28;20207;-75
2022/12/04 14:43:47;;;;;;;28.23;17.38;;;5.60;99.90;;;;;;5064859;28;20255;-76
2022/12/04 14:46:41;;;;;;;23.83;16.65;;;5.50;99.90;;;;;;5057167;28;20693;-75